Terminal Aerodrome Forecast
Issued by NWS Jacksonville, FL

Home | Current Version | Previous Version | Text Only | Print | Product List | Glossary On
Versions: 1 2 3 4 5 6 7 8 9 10 11 12 13 14 15 16 17 18
436
FTUS42 KJAX 271720
TAFGNV
TAF
KGNV 271720Z 2718/2818 23005KT P6SM SKC
     FM280700 24003KT 3SM BR BKN005
     FM280900 25003KT 2SM BR OVC004
     FM281200 27008KT P6SM SCT035=

USA.gov is the U.S. government's official web portal to all federal, state and local government web resources and services.